Windsor, New York
Current Conditions -  °F | °C
As of 10:53 AM on Thursday 29 Jan 2015 (Local Time) from KBGM Reporting Station
Overcast Overcast  
Wind Chill:   Ceiling: 10000
Heat Index: 19°   Visibility: 10mi
Dew Point:   Wind: 12mph
Humidity: 57%   Direction: 140°SE
Pressure: 30.08"   Gusts: NA
Location:  42.08°N, 75.64°W
Report Text: KBGM 291553Z 14010KT 10SM OVC100 M07/M14 A3008 RMK AO2 PRESFR SLP216 T10721144
Loading
Personal Weather Stations






























Interactive Weather Map New forecast layout! Learn more

10-Day Weather Forecast

Advertisements
Track Severe Weather on mobile